Bement, Illinois
Current Conditions -  °F | °C
As of 7:54 AM on Friday 28 Nov 2014 (Local Time) from KDEC Reporting Station
Clear Clear  
Wind Chill: 10°   Ceiling: Unl
Heat Index: 22°   Visibility: 10mi
Dew Point: 15°   Wind: 12mph
Humidity: 75%   Direction: 140°SE
Pressure: 30.27"   Gusts: NA
Location:  39.92°N, 88.57°W
Report Text: KDEC 281354Z 14010KT 10SM CLR M06/M09 A3027 RMK AO2 SLP262 T10561094
Loading
Personal Weather Stations






























Interactive Weather Map New forecast layout! Learn more

10-Day Weather Forecast

Advertisements
Track Severe Weather on mobile